Crystola, Colorado
Current Conditions -  °F | °C
As of 11:58 AM on Sunday 23 Nov 2014 (Local Time) from KAFF Reporting Station
Few Clouds Few Clouds  
Wind Chill: 24°   Ceiling: Unl
Heat Index: 33°   Visibility: 10mi
Dew Point: 21°   Wind: 12mph
Humidity: 62%   Direction: 360°N
Pressure: 29.77"   Gusts: NA
Location:  39.0237°N, 105.099°W
Report Text: KAFF 231858Z AUTO 36010KT 10SM FEW150 01/M06 A2977 RMK AO2 SLP072 T00061060
Loading
Personal Weather Stations






























Interactive Weather Map New forecast layout! Learn more

10-Day Weather Forecast

Advertisements
Track Severe Weather on mobile